Time;durP1;ratioP1;P1;durP2;ratioP2;P2;SDS_P1;SDS_P2;PMS_P1;PMS_P2;Temp;Humidity;BMP_temperature;BMP_pressure;BME280_temperature;BME280_humidity;BME280_pressure;Samples;Min_cycle;Max_cycle;Signal;HPM_P1;HPM_P2
2020/12/05 00:02:12;;;;;;;39.37;33.07;;;4.00;99.90;;;;;;5075213;28;20196;-65
2020/12/05 00:04:38;;;;;;;39.58;31.17;;;3.90;99.90;;;;;;5074912;28;20725;-66
2020/12/05 00:07:04;;;;;;;39.25;30.33;;;3.80;99.90;;;;;;5074568;28;20177;-66
2020/12/05 00:09:30;;;;;;;32.30;28.90;;;3.90;99.90;;;;;;5074371;28;20191;-66
2020/12/05 00:11:55;;;;;;;32.83;29.57;;;3.90;99.90;;;;;;5074700;28;20172;-66
2020/12/05 00:14:21;;;;;;;31.77;28.70;;;3.90;99.90;;;;;;5074751;28;20695;-65
2020/12/05 00:16:50;;;;;;;33.77;30.77;;;3.80;99.90;;;;;;5074982;28;20172;-65
2020/12/05 00:19:17;;;;;;;31.48;25.60;;;3.80;99.90;;;;;;5074424;28;20272;-65
2020/12/05 00:21:42;;;;;;;30.92;27.73;;;3.80;99.90;;;;;;5074322;28;20623;-66
2020/12/05 00:24:08;;;;;;;31.93;29.00;;;3.80;99.90;;;;;;5074426;28;20165;-65
2020/12/05 00:26:34;;;;;;;31.33;28.43;;;3.80;99.90;;;;;;5074462;28;20263;-66
2020/12/05 00:28:59;;;;;;;42.63;38.83;;;3.70;99.90;;;;;;5074399;28;20593;-66
2020/12/05 00:31:25;;;;;;;37.93;35.03;;;3.70;99.90;;;;;;5074647;28;20238;-66
2020/12/05 00:33:50;;;;;;;31.60;28.80;;;3.70;99.90;;;;;;5073859;28;20185;-65
2020/12/05 00:36:17;;;;;;;34.77;31.53;;;3.80;99.90;;;;;;5074054;28;20648;-65
2020/12/05 00:38:44;;;;;;;29.85;27.08;;;3.80;99.90;;;;;;5074115;28;20197;-66
2020/12/05 00:41:11;;;;;;;32.55;29.50;;;3.80;99.90;;;;;;5074072;28;20179;-66
2020/12/05 00:43:37;;;;;;;36.08;32.63;;;3.80;99.90;;;;;;5074356;28;20586;-66
2020/12/05 00:46:03;;;;;;;33.20;28.93;;;3.80;99.90;;;;;;5074371;28;20280;-66
2020/12/05 00:48:30;;;;;;;31.80;28.77;;;3.80;99.90;;;;;;5074050;28;20521;-66
2020/12/05 00:50:56;;;;;;;33.75;30.98;;;3.80;99.90;;;;;;5073538;28;20635;-66
2020/12/05 00:53:21;;;;;;;31.58;28.52;;;3.80;99.90;;;;;;5074001;28;20209;-65
2020/12/05 00:55:47;;;;;;;34.67;31.20;;;3.70;99.90;;;;;;5074030;28;20663;-66
2020/12/05 00:58:12;;;;;;;31.93;28.80;;;3.80;99.90;;;;;;5073958;28;20204;-66
2020/12/05 01:00:39;;;;;;;32.23;29.53;;;3.70;99.90;;;;;;5073570;28;20169;-66
2020/12/05 01:03:05;;;;;;;35.15;31.95;;;3.80;99.90;;;;;;5073606;28;20173;-66
2020/12/05 01:05:32;;;;;;;33.47;29.77;;;3.80;99.90;;;;;;5073724;28;20193;-65
2020/12/05 01:08:03;;;;;;;33.50;30.05;;;3.80;99.90;;;;;;5073821;28;20757;-66
2020/12/05 01:10:28;;;;;;;34.53;31.42;;;3.80;99.90;;;;;;5073605;28;20181;-65
2020/12/05 01:12:54;;;;;;;38.13;35.13;;;3.70;99.90;;;;;;5074048;28;20162;-66
2020/12/05 01:15:19;;;;;;;30.73;28.07;;;3.80;99.90;;;;;;5073763;28;20193;-66
2020/12/05 01:17:45;;;;;;;38.80;35.70;;;3.70;99.90;;;;;;5073660;28;20201;-66
2020/12/05 01:20:11;;;;;;;28.17;25.37;;;3.70;99.90;;;;;;5073463;28;20497;-65
2020/12/05 01:22:36;;;;;;;31.67;28.90;;;3.70;99.90;;;;;;5073982;28;20165;-66
2020/12/05 01:25:02;;;;;;;28.07;24.20;;;3.70;99.90;;;;;;5073719;28;20226;-65
2020/12/05 01:27:28;;;;;;;33.67;28.00;;;3.70;99.90;;;;;;5074001;28;20248;-66
2020/12/05 01:29:53;;;;;;;32.57;29.87;;;3.70;99.90;;;;;;5073563;28;20260;-65
2020/12/05 01:32:19;;;;;;;28.60;25.70;;;3.70;99.90;;;;;;5073437;28;20176;-65
2020/12/05 01:34:45;;;;;;;28.67;25.73;;;3.70;99.90;;;;;;5073319;28;20604;-65
2020/12/05 01:37:11;;;;;;;29.30;27.13;;;3.70;99.90;;;;;;5073518;28;20173;-65
2020/12/05 01:39:36;;;;;;;31.83;27.90;;;3.70;99.90;;;;;;5073438;28;20177;-66
2020/12/05 01:42:03;;;;;;;33.50;30.50;;;3.70;99.90;;;;;;5073763;28;20330;-65
2020/12/05 01:44:30;;;;;;;30.35;27.38;;;3.70;99.90;;;;;;5073792;28;20184;-66
2020/12/05 01:46:56;;;;;;;35.75;32.45;;;3.70;99.90;;;;;;5073240;28;20170;-66
2020/12/05 01:49:22;;;;;;;32.60;29.63;;;3.70;99.90;;;;;;5073111;28;20491;-66
2020/12/05 01:51:48;;;;;;;30.40;27.60;;;3.70;99.90;;;;;;5073417;28;20404;-65
2020/12/05 01:54:14;;;;;;;33.17;29.97;;;3.70;99.90;;;;;;5073014;28;20181;-66
2020/12/05 01:56:42;;;;;;;30.87;27.87;;;3.70;99.90;;;;;;5073703;28;20517;-66
2020/12/05 01:59:08;;;;;;;31.13;27.92;;;3.70;99.90;;;;;;5073458;28;20465;-65
2020/12/05 02:01:34;;;;;;;32.17;29.27;;;3.70;99.90;;;;;;5073093;28;20681;-66
2020/12/05 02:04:01;;;;;;;28.80;25.80;;;3.70;99.90;;;;;;5073235;28;20200;-66
2020/12/05 02:06:45;;;;;;;28.25;25.05;;;3.70;99.90;;;;;;5073303;28;20477;-66
2020/12/05 02:09:21;;;;;;;35.10;31.63;;;3.70;99.90;;;;;;5073399;28;20177;-65
2020/12/05 02:12:02;;;;;;;33.55;30.50;;;3.70;99.90;;;;;;5072913;28;20210;-66
2020/12/05 02:14:29;;;;;;;36.28;32.60;;;3.70;99.90;;;;;;5073112;28;20234;-66
2020/12/05 02:17:00;;;;;;;39.45;36.08;;;3.80;99.90;;;;;;5073397;28;20192;-66
2020/12/05 02:19:36;;;;;;;38.95;35.35;;;3.80;99.90;;;;;;5074048;28;20653;-65
2020/12/05 02:22:04;;;;;;;38.15;35.22;;;3.80;99.90;;;;;;5077181;28;20168;-66
2020/12/05 02:24:30;;;;;;;32.00;29.00;;;3.90;99.90;;;;;;5076671;28;20165;-66
2020/12/05 02:26:56;;;;;;;32.65;29.35;;;3.80;99.90;;;;;;5076728;28;20278;-65
2020/12/05 02:29:21;;;;;;;37.70;34.00;;;3.80;99.90;;;;;;5076497;28;20173;-66
2020/12/05 02:31:47;;;;;;;36.07;33.03;;;3.80;99.90;;;;;;5076749;28;20260;-65
2020/12/05 02:34:13;;;;;;;35.17;32.03;;;3.70;99.90;;;;;;5076346;28;20196;-65
2020/12/05 02:36:39;;;;;;;40.13;36.77;;;3.70;99.90;;;;;;5076850;28;20431;-66
2020/12/05 02:39:09;;;;;;;39.45;36.03;;;3.70;99.90;;;;;;5076206;28;20212;-66
2020/12/05 02:41:39;;;;;;;35.33;32.30;;;3.70;99.90;;;;;;5076247;28;20187;-66
2020/12/05 02:44:05;;;;;;;36.85;33.65;;;3.70;99.90;;;;;;5076542;28;20173;-66
2020/12/05 02:46:31;;;;;;;35.80;32.25;;;3.70;99.90;;;;;;5076597;28;20189;-65
2020/12/05 02:48:57;;;;;;;35.97;32.85;;;3.70;99.90;;;;;;5076616;28;20173;-65
2020/12/05 02:51:23;;;;;;;34.70;30.97;;;3.70;99.90;;;;;;5075790;28;20260;-65
2020/12/05 02:53:49;;;;;;;35.00;31.30;;;3.70;99.90;;;;;;5076081;28;20169;-65
2020/12/05 02:56:18;;;;;;;38.60;35.28;;;3.60;99.90;;;;;;5076256;28;20572;-65
2020/12/05 02:58:45;;;;;;;36.00;32.67;;;3.60;99.90;;;;;;5076289;28;20201;-65
2020/12/05 03:01:11;;;;;;;32.40;29.50;;;3.60;99.90;;;;;;5075649;28;20260;-65
2020/12/05 03:03:37;;;;;;;33.00;29.63;;;3.60;99.90;;;;;;5076397;28;20169;-66
2020/12/05 03:06:03;;;;;;;35.80;32.23;;;3.50;99.90;;;;;;5075644;28;20192;-65
2020/12/05 03:08:28;;;;;;;36.80;33.47;;;3.60;99.90;;;;;;5075857;28;20443;-65
2020/12/05 03:10:54;;;;;;;34.17;30.67;;;3.50;99.90;;;;;;5075933;28;20222;-65
2020/12/05 03:13:20;;;;;;;36.03;32.10;;;3.40;99.90;;;;;;5076006;28;20248;-65
2020/12/05 03:15:45;;;;;;;36.87;33.47;;;3.40;99.90;;;;;;5075507;28;20193;-65
2020/12/05 03:18:11;;;;;;;31.80;28.53;;;3.40;99.90;;;;;;5075967;28;20193;-65
2020/12/05 03:20:36;;;;;;;33.83;30.43;;;3.30;99.90;;;;;;5075441;28;20176;-65
2020/12/05 03:23:02;;;;;;;31.20;27.93;;;3.30;99.90;;;;;;5074326;28;20219;-65
2020/12/05 03:25:28;;;;;;;34.90;31.60;;;3.30;99.90;;;;;;5075538;28;20678;-65
2020/12/05 03:27:53;;;;;;;40.53;36.87;;;3.20;99.90;;;;;;5075679;28;20169;-65
2020/12/05 03:30:19;;;;;;;37.63;34.23;;;3.20;99.90;;;;;;5074537;28;20575;-65
2020/12/05 03:32:45;;;;;;;32.53;28.70;;;3.30;99.90;;;;;;5074643;28;20173;-66
2020/12/05 03:35:10;;;;;;;35.15;31.30;;;3.20;99.90;;;;;;5075102;28;20377;-66
2020/12/05 03:37:36;;;;;;;37.37;33.87;;;3.30;99.90;;;;;;5075165;28;20685;-65
2020/12/05 03:40:04;;;;;;;35.63;31.33;;;3.30;99.90;;;;;;5075075;28;20507;-65
2020/12/05 03:42:29;;;;;;;34.78;28.30;;;3.30;99.90;;;;;;5075226;28;20161;-65
2020/12/05 03:44:55;;;;;;;32.77;29.37;;;3.30;99.90;;;;;;5075283;28;20605;-65
2020/12/05 03:47:20;;;;;;;36.60;32.63;;;3.20;99.90;;;;;;5075082;28;20180;-65
2020/12/05 03:49:47;;;;;;;30.17;27.00;;;3.20;99.90;;;;;;5074982;28;20170;-65
2020/12/05 03:52:12;;;;;;;37.53;31.30;;;3.10;99.90;;;;;;5074971;28;20161;-65
2020/12/05 03:54:38;;;;;;;38.90;35.13;;;3.10;99.90;;;;;;5074966;28;20542;-66
2020/12/05 03:57:03;;;;;;;37.80;34.23;;;3.20;99.90;;;;;;5074931;28;20169;-65
2020/12/05 03:59:29;;;;;;;39.10;35.70;;;3.20;99.90;;;;;;5074739;28;20204;-66
2020/12/05 04:01:54;;;;;;;44.07;40.17;;;3.20;99.90;;;;;;5074766;28;20178;-65
2020/12/05 04:04:20;;;;;;;39.87;36.07;;;3.30;99.90;;;;;;5074481;28;20791;-66
2020/12/05 04:06:46;;;;;;;37.83;33.93;;;3.20;99.90;;;;;;5074830;28;20557;-65
2020/12/05 04:09:12;;;;;;;38.60;34.60;;;3.20;99.90;;;;;;5074764;28;20252;-65
2020/12/05 04:11:40;;;;;;;40.83;35.80;;;3.20;99.90;;;;;;5074335;28;20635;-65
2020/12/05 04:14:07;;;;;;;37.53;30.92;;;3.20;99.90;;;;;;5074869;28;20876;-65
2020/12/05 04:16:34;;;;;;;30.45;27.52;;;3.20;99.90;;;;;;5074868;28;20197;-66
2020/12/05 04:19:00;;;;;;;35.60;31.83;;;3.20;99.90;;;;;;5074243;28;20205;-65
2020/12/05 04:21:26;;;;;;;36.20;32.30;;;3.20;99.90;;;;;;5074273;28;20685;-65
2020/12/05 04:23:53;;;;;;;39.03;35.13;;;3.30;99.90;;;;;;5074666;28;20457;-65
2020/12/05 04:26:19;;;;;;;40.53;36.17;;;3.30;99.90;;;;;;5074558;28;20314;-65
2020/12/05 04:28:45;;;;;;;41.38;35.63;;;3.20;99.90;;;;;;5074644;28;20174;-65
2020/12/05 04:31:10;;;;;;;40.80;34.43;;;3.20;99.90;;;;;;5073981;28;20180;-66
2020/12/05 04:33:36;;;;;;;35.87;27.97;;;3.30;99.90;;;;;;5073951;28;20604;-65
2020/12/05 04:36:03;;;;;;;38.53;30.60;;;3.30;99.90;;;;;;5074195;28;20234;-65
2020/12/05 04:38:29;;;;;;;36.00;32.05;;;3.30;99.90;;;;;;5074203;28;20193;-65
2020/12/05 04:40:58;;;;;;;45.27;33.57;;;3.30;99.90;;;;;;5073855;28;20711;-65
2020/12/05 04:43:24;;;;;;;44.25;39.90;;;3.40;99.90;;;;;;5073871;28;20170;-64
2020/12/05 04:45:51;;;;;;;36.17;32.63;;;3.30;99.90;;;;;;5074426;28;20189;-65
2020/12/05 04:48:17;;;;;;;34.58;30.88;;;3.30;99.90;;;;;;5073944;28;20322;-66
2020/12/05 04:50:45;;;;;;;35.77;31.87;;;3.40;99.90;;;;;;5074142;28;20307;-65
2020/12/05 04:53:22;;;;;;;38.25;34.28;;;3.40;99.90;;;;;;5074073;28;20399;-65
2020/12/05 04:55:48;;;;;;;39.13;35.45;;;3.40;99.90;;;;;;5074221;28;20643;-65
2020/12/05 04:58:17;;;;;;;41.30;37.20;;;3.40;99.90;;;;;;5074288;28;20208;-66
2020/12/05 05:00:45;;;;;;;36.20;32.60;;;3.40;99.90;;;;;;5073554;28;20623;-66
2020/12/05 05:03:14;;;;;;;35.63;30.92;;;3.50;99.90;;;;;;5074010;28;20177;-65
2020/12/05 05:05:40;;;;;;;42.45;36.42;;;3.50;99.90;;;;;;5073948;28;20185;-65
2020/12/05 05:08:06;;;;;;;38.57;34.57;;;3.50;99.90;;;;;;5073495;28;20177;-65
2020/12/05 05:10:33;;;;;;;38.00;34.43;;;3.40;99.90;;;;;;5073646;28;20200;-65
2020/12/05 05:13:04;;;;;;;38.28;31.83;;;3.50;99.90;;;;;;5073902;28;20435;-65
2020/12/05 05:15:31;;;;;;;45.42;41.45;;;3.50;99.90;;;;;;5073594;28;20197;-66
2020/12/05 05:17:58;;;;;;;42.42;38.90;;;3.40;99.90;;;;;;5073324;28;20189;-66
2020/12/05 05:20:25;;;;;;;40.22;36.22;;;3.40;99.90;;;;;;5073352;28;20172;-65
2020/12/05 05:22:54;;;;;;;40.92;36.95;;;3.50;99.90;;;;;;5073576;28;20161;-65
2020/12/05 05:25:21;;;;;;;43.05;35.80;;;3.50;99.90;;;;;;5073299;28;20615;-65
2020/12/05 05:27:59;;;;;;;37.00;33.25;;;3.50;99.90;;;;;;5073457;28;20173;-66
2020/12/05 05:30:25;;;;;;;34.67;31.45;;;3.50;99.90;;;;;;5073154;28;20524;-65
2020/12/05 05:33:03;;;;;;;40.50;35.10;;;3.50;99.90;;;;;;5073744;28;20218;-66
2020/12/05 05:35:37;;;;;;;35.63;31.75;;;3.50;99.90;;;;;;5073438;28;20199;-66
2020/12/05 05:38:03;;;;;;;36.83;32.80;;;3.50;99.90;;;;;;5073432;28;20192;-66
2020/12/05 05:40:29;;;;;;;46.77;36.87;;;3.50;99.90;;;;;;5073420;28;20173;-66
2020/12/05 05:42:55;;;;;;;36.28;32.38;;;3.40;99.90;;;;;;5073477;28;20404;-66
2020/12/05 05:45:26;;;;;;;36.60;33.00;;;3.30;99.90;;;;;;5073505;28;20612;-66
2020/12/05 05:48:03;;;;;;;31.92;27.38;;;3.20;99.90;;;;;;5073659;28;20223;-66
2020/12/05 05:50:33;;;;;;;40.42;32.63;;;3.20;99.90;;;;;;5073433;28;20223;-66
2020/12/05 05:53:02;;;;;;;37.20;33.20;;;3.20;99.90;;;;;;5073288;28;20661;-65
2020/12/05 05:55:44;;;;;;;37.95;32.72;;;3.20;99.90;;;;;;5076169;28;20247;-65
2020/12/05 05:58:11;;;;;;;37.60;30.48;;;3.20;99.90;;;;;;5076917;28;20189;-66
2020/12/05 06:00:41;;;;;;;38.90;33.30;;;3.10;99.90;;;;;;5077091;28;20165;-66
2020/12/05 06:03:26;;;;;;;40.40;35.72;;;3.10;99.90;;;;;;5077125;28;20223;-66
2020/12/05 06:05:57;;;;;;;36.47;32.75;;;3.10;99.90;;;;;;5076768;28;20189;-66
2020/12/05 06:08:25;;;;;;;34.90;30.40;;;3.10;99.90;;;;;;5077283;28;20165;-66
2020/12/05 06:10:59;;;;;;;37.88;33.88;;;3.10;99.90;;;;;;5076698;28;20207;-65
2020/12/05 06:13:27;;;;;;;39.15;34.95;;;3.10;99.90;;;;;;5076892;28;20635;-65
2020/12/05 06:15:53;;;;;;;40.75;36.78;;;3.10;99.90;;;;;;5076766;28;20185;-65
2020/12/05 06:18:20;;;;;;;42.13;37.70;;;3.10;99.90;;;;;;5076753;28;20209;-65
2020/12/05 06:20:47;;;;;;;40.13;35.72;;;3.00;99.90;;;;;;5076377;28;20165;-66
2020/12/05 06:23:31;;;;;;;39.97;34.40;;;3.00;99.90;;;;;;5077013;28;20179;-65
2020/12/05 06:25:59;;;;;;;38.42;30.70;;;2.90;99.90;;;;;;5076378;28;20270;-65
2020/12/05 06:28:25;;;;;;;39.08;32.63;;;3.00;99.90;;;;;;5076546;28;20173;-64
2020/12/05 06:30:52;;;;;;;46.27;36.20;;;3.00;99.90;;;;;;5076520;28;20218;-65
2020/12/05 06:33:40;;;;;;;44.70;32.45;;;2.90;99.90;;;;;;5076490;28;20418;-65
2020/12/05 06:36:27;;;;;;;43.60;38.42;;;2.90;99.90;;;;;;5076265;28;20200;-66
2020/12/05 06:39:10;;;;;;;40.72;32.58;;;2.90;99.90;;;;;;5076301;28;20208;-65
2020/12/05 06:41:37;;;;;;;35.80;32.20;;;2.80;99.90;;;;;;5076070;28;20185;-65
2020/12/05 06:44:14;;;;;;;36.40;32.53;;;2.80;99.90;;;;;;5076752;28;20173;-65
2020/12/05 06:46:59;;;;;;;38.15;31.55;;;2.80;99.90;;;;;;5076796;28;20196;-66
2020/12/05 06:49:40;;;;;;;39.92;34.10;;;2.90;99.90;;;;;;5076492;28;20184;-65
2020/12/05 06:52:24;;;;;;;40.75;35.80;;;2.90;99.90;;;;;;5076434;28;20192;-65
2020/12/05 06:54:51;;;;;;;38.35;33.00;;;2.90;99.90;;;;;;5076393;28;20281;-66
2020/12/05 06:57:17;;;;;;;40.28;32.75;;;2.90;99.90;;;;;;5076007;28;20224;-65
2020/12/05 06:59:43;;;;;;;46.93;34.30;;;2.90;99.90;;;;;;5075927;28;20362;-65
2020/12/05 07:02:26;;;;;;;42.83;34.83;;;3.00;99.90;;;;;;5076134;28;20398;-65
2020/12/05 07:04:52;;;;;;;47.13;37.08;;;3.00;99.90;;;;;;5075823;28;20188;-65
2020/12/05 07:07:29;;;;;;;40.47;31.00;;;3.00;99.90;;;;;;5076430;28;20169;-65
2020/12/05 07:09:55;;;;;;;44.83;34.88;;;2.90;99.90;;;;;;5075803;28;20223;-66
2020/12/05 07:12:20;;;;;;;37.43;33.33;;;2.90;99.90;;;;;;5075847;28;20177;-66
2020/12/05 07:14:46;;;;;;;42.97;38.37;;;2.90;99.90;;;;;;5075835;28;20197;-65
2020/12/05 07:17:21;;;;;;;44.83;40.23;;;2.80;99.90;;;;;;5076034;28;20170;-65
2020/12/05 07:19:49;;;;;;;42.00;37.72;;;2.90;99.90;;;;;;5075950;28;20180;-65
2020/12/05 07:22:14;;;;;;;46.65;38.92;;;2.80;99.90;;;;;;5075684;28;20173;-65
2020/12/05 07:24:40;;;;;;;41.30;35.97;;;2.80;99.90;;;;;;5075247;28;20192;-66
2020/12/05 07:27:05;;;;;;;52.10;38.50;;;2.90;99.90;;;;;;5075800;28;20311;-65
2020/12/05 07:29:31;;;;;;;45.40;38.07;;;2.70;99.90;;;;;;5075210;28;20161;-65
2020/12/05 07:31:56;;;;;;;40.63;35.97;;;2.70;99.90;;;;;;5075620;28;20627;-65
2020/12/05 07:34:22;;;;;;;50.10;43.13;;;2.70;99.90;;;;;;5075115;28;20647;-65
2020/12/05 07:36:48;;;;;;;45.03;34.25;;;2.70;99.90;;;;;;5075452;28;20170;-65
2020/12/05 07:39:13;;;;;;;38.87;33.47;;;2.70;99.90;;;;;;5075169;28;20211;-65
2020/12/05 07:41:40;;;;;;;48.07;37.47;;;2.80;99.90;;;;;;5075185;28;20624;-65
2020/12/05 07:44:05;;;;;;;44.55;35.72;;;2.80;99.90;;;;;;5075386;28;20607;-66
2020/12/05 07:46:31;;;;;;;42.73;36.47;;;2.80;99.90;;;;;;5075496;28;20197;-66
2020/12/05 07:48:57;;;;;;;42.60;31.83;;;2.80;99.90;;;;;;5075528;28;20631;-65
2020/12/05 07:51:22;;;;;;;45.83;36.53;;;2.70;99.90;;;;;;5074700;28;20537;-65
2020/12/05 07:53:49;;;;;;;42.10;37.40;;;2.80;99.90;;;;;;5075102;28;20646;-66
2020/12/05 07:56:19;;;;;;;45.65;40.78;;;2.90;99.90;;;;;;5074993;28;20219;-66
2020/12/05 07:58:49;;;;;;;45.72;36.35;;;2.90;99.90;;;;;;5074842;28;20625;-66
2020/12/05 08:01:39;;;;;;;42.00;34.80;;;2.90;99.90;;;;;;5074548;28;20169;-65
2020/12/05 08:04:41;;;;;;;43.55;35.53;;;3.00;99.90;;;;;;5074908;28;20169;-65
2020/12/05 08:07:19;;;;;;;42.38;34.25;;;3.00;99.90;;;;;;5075024;28;20566;-66
2020/12/05 08:09:45;;;;;;;38.08;34.03;;;2.90;99.90;;;;;;5074908;28;20165;-67
2020/12/05 08:12:13;;;;;;;48.20;36.83;;;3.00;99.90;;;;;;5074422;28;20268;-65
2020/12/05 08:14:43;;;;;;;42.40;35.45;;;2.90;99.90;;;;;;5074664;28;20196;-65
2020/12/05 08:17:10;;;;;;;42.25;33.58;;;2.90;99.90;;;;;;5073982;28;20165;-65
2020/12/05 08:19:40;;;;;;;42.95;33.90;;;2.80;99.90;;;;;;5074538;28;20204;-65
2020/12/05 08:22:08;;;;;;;41.97;36.75;;;2.80;99.90;;;;;;5083985;28;20234;-65
2020/12/05 08:24:51;;;;;;;40.85;36.45;;;2.90;99.90;;;;;;5092337;28;20172;-67
2020/12/05 08:27:18;;;;;;;47.17;39.30;;;3.00;99.90;;;;;;5075816;28;20189;-66
2020/12/05 08:29:46;;;;;;;51.83;35.70;;;3.00;99.90;;;;;;5072128;28;20226;-67
2020/12/05 08:32:23;;;;;;;45.95;37.30;;;3.00;99.90;;;;;;5072139;28;20181;-66
2020/12/05 08:34:48;;;;;;;42.17;37.13;;;2.80;99.90;;;;;;5071801;28;20736;-65
2020/12/05 08:37:23;;;;;;;43.80;35.53;;;2.90;99.90;;;;;;5071885;28;20173;-65
2020/12/05 08:39:51;;;;;;;42.65;37.83;;;2.90;99.90;;;;;;5071272;28;20230;-66
2020/12/05 08:42:17;;;;;;;39.70;35.42;;;3.00;99.90;;;;;;5071716;28;20512;-67
2020/12/05 08:44:42;;;;;;;42.93;37.10;;;3.00;99.90;;;;;;5071660;28;20213;-67
2020/12/05 08:47:08;;;;;;;41.57;37.47;;;3.10;99.90;;;;;;5071792;28;20169;-67
2020/12/05 08:49:38;;;;;;;45.60;40.10;;;3.10;99.90;;;;;;5071557;28;20639;-68
2020/12/05 08:52:06;;;;;;;44.97;37.75;;;3.10;99.90;;;;;;5071620;28;20512;-68
2020/12/05 08:54:49;;;;;;;42.28;35.85;;;3.10;99.90;;;;;;5071304;28;20177;-66
2020/12/05 08:57:15;;;;;;;41.08;36.38;;;3.00;99.90;;;;;;5071676;28;20205;-66
2020/12/05 08:59:41;;;;;;;46.65;33.80;;;3.10;99.90;;;;;;5071694;28;20572;-67
2020/12/05 09:02:07;;;;;;;46.42;39.35;;;3.10;99.90;;;;;;5071520;28;20188;-67
2020/12/05 09:04:35;;;;;;;39.40;34.30;;;3.10;99.90;;;;;;5071665;28;20173;-65
2020/12/05 09:07:17;;;;;;;42.92;36.25;;;3.20;99.90;;;;;;5071522;28;20169;-65
2020/12/05 09:09:46;;;;;;;42.38;35.47;;;3.20;99.90;;;;;;5071633;28;20189;-66
2020/12/05 09:12:16;;;;;;;54.13;40.22;;;3.20;99.90;;;;;;5071430;28;20260;-66
2020/12/05 09:14:45;;;;;;;43.10;36.55;;;3.30;99.90;;;;;;5071326;28;20193;-66
2020/12/05 09:17:27;;;;;;;42.13;37.50;;;3.20;99.90;;;;;;5072207;28;20169;-66
2020/12/05 09:20:08;;;;;;;50.22;40.38;;;3.30;99.90;;;;;;5091373;28;20194;-66
2020/12/05 09:22:34;;;;;;;48.22;38.17;;;3.50;99.90;;;;;;5091740;28;20184;-68
2020/12/05 09:25:00;;;;;;;43.00;38.53;;;3.60;99.90;;;;;;5091525;28;20192;-66
2020/12/05 09:27:42;;;;;;;44.65;37.08;;;3.70;99.90;;;;;;5091604;28;20180;-66
2020/12/05 09:30:10;;;;;;;37.58;30.98;;;3.80;99.90;;;;;;5095715;28;20156;-65
2020/12/05 09:32:44;;;;;;;42.03;32.75;;;3.90;99.90;;;;;;5095780;28;20170;-65
2020/12/05 09:35:12;;;;;;;45.60;36.78;;;4.00;99.90;;;;;;5095700;28;20204;-65
2020/12/05 09:37:37;;;;;;;39.33;34.78;;;4.10;99.90;;;;;;5095611;28;20172;-65
2020/12/05 09:40:05;;;;;;;46.47;40.40;;;4.10;99.90;;;;;;5095416;28;20177;-65
2020/12/05 09:42:31;;;;;;;36.55;32.92;;;4.20;99.90;;;;;;5095416;28;20172;-65
2020/12/05 09:44:56;;;;;;;44.90;35.17;;;4.10;99.90;;;;;;5095414;28;20271;-67
2020/12/05 09:47:22;;;;;;;42.50;35.03;;;4.20;99.90;;;;;;5095566;28;20657;-66
2020/12/05 09:49:48;;;;;;;38.70;32.23;;;4.30;99.90;;;;;;5095282;28;20182;-66
2020/12/05 09:52:13;;;;;;;40.30;36.10;;;4.40;99.90;;;;;;5095375;28;20184;-65
2020/12/05 09:54:39;;;;;;;37.60;32.90;;;4.40;99.90;;;;;;5093548;28;20702;-67
2020/12/05 09:57:06;;;;;;;39.13;33.50;;;4.50;99.90;;;;;;5095192;28;20173;-67
2020/12/05 09:59:32;;;;;;;37.38;29.23;;;4.60;99.90;;;;;;5094809;28;20275;-66
2020/12/05 10:01:58;;;;;;;33.92;28.88;;;4.50;99.90;;;;;;5094263;28;20176;-65
2020/12/05 10:04:23;;;;;;;40.13;33.13;;;4.60;99.90;;;;;;5095136;28;20214;-65
2020/12/05 10:06:49;;;;;;;39.57;34.03;;;4.60;99.90;;;;;;5094095;28;20599;-67
2020/12/05 10:09:15;;;;;;;39.50;32.60;;;4.60;99.90;;;;;;5095455;28;20176;-66
2020/12/05 10:11:41;;;;;;;35.40;27.07;;;4.60;99.90;;;;;;5094946;28;20206;-66
2020/12/05 10:14:06;;;;;;;37.63;31.40;;;4.70;99.90;;;;;;5095131;28;20203;-67
2020/12/05 10:16:33;;;;;;;42.07;32.97;;;4.70;99.90;;;;;;5094967;28;20518;-66
2020/12/05 10:18:59;;;;;;;31.95;26.05;;;4.80;99.90;;;;;;5094885;28;20184;-65
2020/12/05 10:21:24;;;;;;;45.53;33.75;;;4.80;99.90;;;;;;5094749;28;20188;-66
2020/12/05 10:23:50;;;;;;;39.23;31.47;;;4.80;99.90;;;;;;5094827;28;20160;-66
2020/12/05 10:26:15;;;;;;;38.13;33.97;;;4.90;99.90;;;;;;5094802;28;20196;-65
2020/12/05 10:28:41;;;;;;;46.37;36.50;;;5.00;99.90;;;;;;5094730;28;20169;-66
2020/12/05 10:31:07;;;;;;;44.30;37.43;;;5.10;99.90;;;;;;5085299;28;20173;-66
2020/12/05 10:33:32;;;;;;;50.17;38.27;;;5.10;99.90;;;;;;5084919;28;20188;-66
2020/12/05 10:35:58;;;;;;;44.57;33.90;;;5.30;99.90;;;;;;5093022;28;20695;-65
2020/12/05 10:38:23;;;;;;;39.50;30.80;;;5.40;99.90;;;;;;5094607;28;20208;-67
2020/12/05 10:40:49;;;;;;;44.47;30.70;;;5.50;99.90;;;;;;5093732;28;20164;-67
2020/12/05 10:43:14;;;;;;;42.97;33.13;;;5.50;99.90;;;;;;5094500;28;20576;-66
2020/12/05 10:45:40;;;;;;;37.90;33.63;;;5.60;99.90;;;;;;5094431;28;20185;-65
2020/12/05 10:48:06;;;;;;;40.80;32.47;;;5.60;99.90;;;;;;5094285;28;20252;-67
2020/12/05 10:50:31;;;;;;;41.53;34.43;;;5.60;99.90;;;;;;5094197;28;20176;-65
2020/12/05 10:52:57;;;;;;;46.40;36.00;;;5.60;99.90;;;;;;5094150;28;20225;-67
2020/12/05 10:55:22;;;;;;;50.57;39.77;;;5.70;99.90;;;;;;5094224;28;20674;-66
2020/12/05 10:57:48;;;;;;;53.20;37.83;;;5.80;99.90;;;;;;5094173;28;20681;-66
2020/12/05 11:00:13;;;;;;;46.27;39.23;;;5.80;99.90;;;;;;5094029;28;20563;-65
2020/12/05 11:02:39;;;;;;;38.30;32.97;;;5.90;99.90;;;;;;5094168;28;20176;-66
2020/12/05 11:05:06;;;;;;;42.90;36.23;;;5.90;99.90;;;;;;5093962;28;20199;-66
2020/12/05 11:07:31;;;;;;;37.45;31.60;;;6.00;99.90;;;;;;5094034;28;20192;-67
2020/12/05 11:09:57;;;;;;;42.60;36.97;;;6.00;99.90;;;;;;5093924;28;20564;-65
2020/12/05 11:12:23;;;;;;;34.07;30.73;;;6.00;99.90;;;;;;5093756;28;20179;-66
2020/12/05 11:14:48;;;;;;;34.67;28.50;;;6.00;99.90;;;;;;5093884;28;20195;-65
2020/12/05 11:17:14;;;;;;;34.47;30.87;;;6.00;99.90;;;;;;5080165;28;20181;-66
2020/12/05 11:19:39;;;;;;;32.37;29.10;;;6.10;99.90;;;;;;5073446;28;20200;-66
2020/12/05 11:22:05;;;;;;;33.30;29.90;;;6.10;99.90;;;;;;5073376;28;20177;-65
2020/12/05 11:24:30;;;;;;;41.40;36.17;;;6.10;99.90;;;;;;5073421;28;20203;-65
2020/12/05 11:26:56;;;;;;;35.43;31.23;;;6.20;99.90;;;;;;5073372;28;20173;-66
2020/12/05 11:29:21;;;;;;;37.63;33.57;;;6.30;99.90;;;;;;5073360;28;20255;-66
2020/12/05 11:31:47;;;;;;;36.83;33.47;;;6.30;99.90;;;;;;5073294;28;20165;-66
2020/12/05 11:34:12;;;;;;;38.60;34.97;;;6.30;99.90;;;;;;5073006;28;20292;-66
2020/12/05 11:36:43;;;;;;;35.00;31.30;;;6.30;99.90;;;;;;5073204;28;20180;-66
2020/12/05 11:39:08;;;;;;;35.97;32.17;;;6.30;99.90;;;;;;5073095;28;20663;-66
2020/12/05 11:41:34;;;;;;;36.33;30.17;;;6.30;99.90;;;;;;5073152;28;20268;-66
2020/12/05 11:44:03;;;;;;;40.60;36.50;;;6.40;99.90;;;;;;5073225;28;20456;-67
2020/12/05 11:46:28;;;;;;;42.50;37.80;;;6.50;99.90;;;;;;5073074;28;20542;-66
2020/12/05 11:48:54;;;;;;;40.27;36.00;;;6.40;99.90;;;;;;5073302;28;20173;-65
2020/12/05 11:51:24;;;;;;;36.40;32.43;;;6.40;99.90;;;;;;5072164;28;20176;-68
2020/12/05 11:53:49;;;;;;;36.72;33.13;;;6.40;99.90;;;;;;5072553;28;20172;-65
2020/12/05 11:56:15;;;;;;;44.77;40.20;;;6.40;99.90;;;;;;5072599;28;20197;-66
2020/12/05 11:58:40;;;;;;;47.70;42.47;;;6.50;99.90;;;;;;5072661;28;20197;-65
2020/12/05 12:01:06;;;;;;;46.47;41.97;;;6.60;99.90;;;;;;5072413;28;20233;-67
2020/12/05 12:03:32;;;;;;;44.83;40.03;;;6.60;99.90;;;;;;5072621;28;20355;-66
2020/12/05 12:05:57;;;;;;;46.40;41.40;;;6.60;99.90;;;;;;5072462;28;20185;-66
2020/12/05 12:08:23;;;;;;;47.77;41.17;;;6.60;99.90;;;;;;5072573;28;20226;-65
2020/12/05 12:10:48;;;;;;;44.27;38.60;;;6.60;99.90;;;;;;5072362;28;20643;-66
2020/12/05 12:13:14;;;;;;;40.57;36.53;;;6.50;99.90;;;;;;5072417;28;20177;-65
2020/12/05 12:15:39;;;;;;;45.73;40.77;;;6.60;99.90;;;;;;5072425;28;20199;-66
2020/12/05 12:18:05;;;;;;;40.97;36.57;;;6.60;99.90;;;;;;5072132;28;20204;-67
2020/12/05 12:20:30;;;;;;;43.77;38.97;;;6.60;99.90;;;;;;5072118;28;20563;-66
2020/12/05 12:22:56;;;;;;;44.03;39.40;;;6.70;99.90;;;;;;5072366;28;20257;-67
2020/12/05 12:25:21;;;;;;;50.93;45.50;;;6.70;99.90;;;;;;5072329;28;20193;-67
2020/12/05 12:27:47;;;;;;;43.07;38.37;;;6.70;99.90;;;;;;5072414;28;20173;-65
2020/12/05 12:30:13;;;;;;;50.10;44.23;;;6.80;99.90;;;;;;5071911;28;20534;-66
2020/12/05 12:32:38;;;;;;;49.50;43.53;;;6.80;99.90;;;;;;5072015;28;20256;-66
2020/12/05 12:35:04;;;;;;;56.97;44.67;;;6.70;99.90;;;;;;5071749;28;20262;-67
2020/12/05 12:37:29;;;;;;;48.33;42.20;;;6.70;99.90;;;;;;5071882;28;20829;-65
2020/12/05 12:39:55;;;;;;;52.38;43.15;;;6.70;99.90;;;;;;5071988;28;20666;-65